Time;durP1;ratioP1;P1;durP2;ratioP2;P2;SDS_P1;SDS_P2;PMS_P1;PMS_P2;Temp;Humidity;BMP_temperature;BMP_pressure;BME280_temperature;BME280_humidity;BME280_pressure;Samples;Min_cycle;Max_cycle;Signal;HPM_P1;HPM_P2
2023/08/26 00:02:19;;;;;;;21.10;14.45;;;16.50;99.90;;;;;;4979268;28;20467;-82
2023/08/26 00:04:46;;;;;;;22.15;14.57;;;16.40;99.90;;;;;;4947221;28;20254;-82
2023/08/26 00:07:12;;;;;;;19.85;14.52;;;16.40;99.90;;;;;;4973883;28;20531;-82
2023/08/26 00:09:38;;;;;;;22.25;14.70;;;16.40;99.90;;;;;;4976686;28;20117;-82
2023/08/26 00:12:03;;;;;;;21.27;13.98;;;16.30;99.90;;;;;;4958423;28;20040;-82
2023/08/26 00:14:29;;;;;;;20.70;14.50;;;16.40;99.90;;;;;;4963202;28;20038;-82
2023/08/26 00:16:58;;;;;;;19.05;13.90;;;16.30;99.90;;;;;;4958755;28;20117;-82
2023/08/26 00:19:24;;;;;;;18.48;14.13;;;16.30;99.90;;;;;;4952401;28;20149;-82
2023/08/26 00:21:50;;;;;;;18.30;14.45;;;16.30;99.90;;;;;;4961522;28;20054;-82
2023/08/26 00:24:17;;;;;;;18.23;14.10;;;16.30;99.90;;;;;;4944023;28;20524;-82
2023/08/26 00:26:42;;;;;;;18.75;13.82;;;16.30;99.90;;;;;;4945791;28;20042;-82
2023/08/26 00:29:08;;;;;;;17.70;13.35;;;16.30;99.90;;;;;;4960197;28;20049;-82
2023/08/26 00:31:34;;;;;;;16.90;12.75;;;16.30;99.90;;;;;;4960886;28;20348;-82
2023/08/26 00:34:02;;;;;;;16.65;12.60;;;16.30;99.90;;;;;;4961798;28;20042;-82
2023/08/26 00:36:28;;;;;;;17.17;13.65;;;16.30;99.90;;;;;;4962895;28;20051;-82
2023/08/26 00:38:53;;;;;;;18.90;13.13;;;16.30;99.90;;;;;;4960504;28;20038;-83
2023/08/26 00:41:19;;;;;;;19.25;13.15;;;16.30;99.90;;;;;;4958218;28;20046;-82
2023/08/26 00:43:45;;;;;;;19.30;13.65;;;16.20;99.90;;;;;;4960243;28;20042;-82
2023/08/26 00:46:11;;;;;;;16.45;12.50;;;16.20;99.90;;;;;;4976502;28;20042;-83
2023/08/26 00:48:36;;;;;;;15.20;12.07;;;16.10;99.90;;;;;;4961778;28;22393;-82
2023/08/26 00:51:02;;;;;;;13.52;11.20;;;16.10;99.90;;;;;;4945054;28;20314;-82
2023/08/26 00:53:28;;;;;;;16.02;11.75;;;16.00;99.90;;;;;;4960199;28;20038;-82
2023/08/26 00:55:54;;;;;;;16.33;11.82;;;15.90;99.90;;;;;;4956285;28;20368;-82
2023/08/26 00:58:20;;;;;;;14.75;10.38;;;15.90;99.90;;;;;;4976604;28;20202;-82
2023/08/26 01:00:47;;;;;;;17.20;10.60;;;15.80;99.90;;;;;;4958800;28;20148;-83
2023/08/26 01:03:13;;;;;;;14.02;11.15;;;15.80;99.90;;;;;;4945963;28;20500;-82
2023/08/26 01:05:38;;;;;;;16.15;10.60;;;15.80;99.90;;;;;;4976060;28;20035;-82
2023/08/26 01:08:05;;;;;;;14.88;10.75;;;15.80;99.90;;;;;;4943366;28;20062;-82
2023/08/26 01:10:40;;;;;;;12.40;9.93;;;15.70;99.90;;;;;;4960661;28;20046;-82
2023/08/26 01:13:11;;;;;;;12.93;9.82;;;15.70;99.90;;;;;;4948721;28;20046;-82
2023/08/26 01:15:42;;;;;;;14.63;10.57;;;15.70;99.90;;;;;;4974503;28;20061;-82
2023/08/26 01:18:10;;;;;;;12.98;10.27;;;15.60;99.90;;;;;;4943645;28;20061;-82
2023/08/26 01:20:37;;;;;;;12.23;9.93;;;15.60;99.90;;;;;;4943785;28;20556;-82
2023/08/26 01:23:05;;;;;;;11.77;10.05;;;15.60;99.90;;;;;;4945399;28;20116;-82
2023/08/26 01:25:31;;;;;;;13.77;9.93;;;15.50;99.90;;;;;;4959054;28;20074;-82
2023/08/26 01:27:58;;;;;;;12.80;9.80;;;15.60;99.90;;;;;;4960068;28;20054;-82
2023/08/26 01:30:26;;;;;;;11.80;9.95;;;15.60;99.90;;;;;;4959560;28;20512;-82
2023/08/26 01:32:58;;;;;;;11.93;9.63;;;15.50;99.90;;;;;;4957309;28;20050;-82
2023/08/26 01:35:39;;;;;;;13.30;9.55;;;15.50;99.90;;;;;;4977090;28;20542;-82
2023/08/26 01:38:07;;;;;;;13.63;9.80;;;15.50;99.90;;;;;;4960576;28;20401;-82
2023/08/26 01:40:34;;;;;;;12.50;9.77;;;15.50;99.90;;;;;;4960827;28;20042;-82
2023/08/26 01:43:02;;;;;;;13.68;9.27;;;15.50;99.90;;;;;;4944635;28;20038;-82
2023/08/26 01:45:28;;;;;;;15.15;9.27;;;15.50;99.90;;;;;;4947803;28;20133;-82
2023/08/26 01:47:54;;;;;;;12.80;8.65;;;15.40;99.90;;;;;;4975128;28;20049;-82
2023/08/26 01:50:20;;;;;;;12.57;9.15;;;15.40;99.90;;;;;;4960112;28;20046;-82
2023/08/26 01:52:46;;;;;;;14.00;8.85;;;15.40;99.90;;;;;;4957441;28;20702;-82
2023/08/26 01:55:11;;;;;;;11.35;8.10;;;15.30;99.90;;;;;;4941336;28;20073;-82
2023/08/26 01:57:37;;;;;;;17.67;9.13;;;15.30;99.90;;;;;;4958465;28;20460;-82
2023/08/26 02:00:03;;;;;;;12.70;9.13;;;15.20;99.90;;;;;;4960502;28;20038;-82
2023/08/26 02:02:29;;;;;;;11.75;8.48;;;15.20;99.90;;;;;;4956742;28;20050;-82
2023/08/26 02:04:54;;;;;;;11.23;8.85;;;15.20;99.90;;;;;;4973641;28;20041;-82
2023/08/26 02:07:20;;;;;;;12.50;8.57;;;15.10;99.90;;;;;;4957965;28;20150;-83
2023/08/26 02:09:45;;;;;;;10.65;8.75;;;15.10;99.90;;;;;;4939329;28;20047;-82
2023/08/26 02:12:11;;;;;;;10.02;8.20;;;15.00;99.90;;;;;;4972150;28;20117;-82
2023/08/26 02:14:37;;;;;;;11.40;8.90;;;14.90;99.90;;;;;;4956844;28;20490;-82
2023/08/26 02:17:02;;;;;;;11.05;8.15;;;14.80;99.90;;;;;;4938430;28;20538;-82
2023/08/26 02:19:28;;;;;;;11.20;8.27;;;14.80;99.90;;;;;;4953632;28;20060;-82
2023/08/26 02:21:54;;;;;;;10.43;8.18;;;14.80;99.90;;;;;;4954542;28;20043;-81
2023/08/26 02:24:20;;;;;;;10.52;8.88;;;14.60;99.90;;;;;;4955331;28;20513;-81
2023/08/26 02:26:46;;;;;;;12.75;8.57;;;14.60;99.90;;;;;;4954729;28;20043;-82
2023/08/26 02:29:11;;;;;;;14.38;8.70;;;14.60;99.90;;;;;;4952735;28;20047;-82
2023/08/26 02:31:37;;;;;;;10.93;8.75;;;14.50;99.90;;;;;;4948732;28;20035;-82
2023/08/26 02:34:03;;;;;;;11.35;8.50;;;14.50;99.90;;;;;;4957819;28;20243;-82
2023/08/26 02:36:28;;;;;;;12.27;7.95;;;14.40;99.90;;;;;;4956196;28;20540;-82
2023/08/26 02:38:54;;;;;;;11.90;8.35;;;14.40;99.90;;;;;;4958597;28;20043;-82
2023/08/26 02:41:20;;;;;;;12.70;8.80;;;14.30;99.90;;;;;;4956229;28;20047;-82
2023/08/26 02:43:45;;;;;;;11.23;8.82;;;14.30;99.90;;;;;;4956343;28;20046;-83
2023/08/26 02:46:11;;;;;;;13.55;9.07;;;14.30;99.90;;;;;;4971105;28;20096;-82
2023/08/26 02:48:36;;;;;;;15.30;9.15;;;14.20;99.90;;;;;;4938475;28;20116;-82
2023/08/26 02:51:05;;;;;;;13.43;8.60;;;14.20;99.90;;;;;;4956213;28;20157;-82
2023/08/26 02:53:31;;;;;;;13.32;8.20;;;14.20;99.90;;;;;;4956948;28;20372;-82
2023/08/26 02:55:57;;;;;;;9.10;8.05;;;14.10;99.90;;;;;;4937407;28;20304;-83
2023/08/26 02:58:23;;;;;;;12.27;8.80;;;14.00;99.90;;;;;;4957282;28;20349;-82
2023/08/26 03:00:49;;;;;;;9.95;8.18;;;13.90;99.90;;;;;;4952800;28;20105;-82
2023/08/26 03:03:15;;;;;;;9.90;8.25;;;13.90;99.90;;;;;;4956028;28;20046;-82
2023/08/26 03:05:41;;;;;;;11.98;8.55;;;13.80;99.90;;;;;;4954262;28;20414;-83
2023/08/26 03:08:10;;;;;;;11.55;8.95;;;13.70;99.90;;;;;;4940726;28;20062;-82
2023/08/26 03:10:36;;;;;;;11.52;8.63;;;13.60;99.90;;;;;;4954680;28;20050;-82
2023/08/26 03:13:01;;;;;;;14.18;9.30;;;13.60;99.90;;;;;;4970620;28;20450;-83
2023/08/26 03:15:28;;;;;;;10.70;8.35;;;13.50;99.90;;;;;;4953163;28;20053;-82
2023/08/26 03:17:54;;;;;;;14.45;9.18;;;13.50;99.90;;;;;;4954153;28;20041;-81
2023/08/26 03:20:19;;;;;;;11.68;8.43;;;13.50;99.90;;;;;;4958707;28;20203;-82
2023/08/26 03:22:45;;;;;;;12.60;9.45;;;13.40;99.90;;;;;;4940135;28;20356;-82
2023/08/26 03:25:12;;;;;;;12.98;9.15;;;13.40;99.90;;;;;;4939650;28;20137;-81
2023/08/26 03:27:37;;;;;;;12.98;8.15;;;13.40;99.90;;;;;;4970034;28;20074;-82
2023/08/26 03:30:04;;;;;;;9.30;8.32;;;13.30;99.90;;;;;;4954314;28;20046;-82
2023/08/26 03:32:29;;;;;;;11.45;8.88;;;13.20;99.90;;;;;;4952714;28;20042;-82
2023/08/26 03:34:55;;;;;;;12.18;8.48;;;13.20;99.90;;;;;;4954257;28;20034;-82
2023/08/26 03:37:21;;;;;;;11.00;8.40;;;13.20;99.90;;;;;;4971618;28;20379;-83
2023/08/26 03:39:46;;;;;;;10.68;8.10;;;13.20;99.90;;;;;;4952571;28;20031;-82
2023/08/26 03:42:15;;;;;;;11.32;8.48;;;13.30;99.90;;;;;;4969589;28;20051;-82
2023/08/26 03:44:40;;;;;;;9.85;7.78;;;13.20;99.90;;;;;;4954543;28;20057;-83
2023/08/26 03:47:06;;;;;;;11.27;7.97;;;13.20;99.90;;;;;;4956968;28;20154;-83
2023/08/26 03:49:32;;;;;;;12.13;8.18;;;13.20;99.90;;;;;;4937947;28;20137;-82
2023/08/26 03:51:57;;;;;;;10.63;8.15;;;13.30;99.90;;;;;;4957780;28;20545;-82
2023/08/26 03:54:23;;;;;;;10.35;6.13;;;13.30;99.90;;;;;;4954214;28;20421;-82
2023/08/26 03:56:48;;;;;;;9.75;7.60;;;13.20;99.90;;;;;;4954664;28;20039;-83
2023/08/26 03:59:14;;;;;;;8.80;7.18;;;13.30;99.90;;;;;;4970364;28;20081;-82
2023/08/26 04:01:40;;;;;;;10.93;7.95;;;13.20;99.90;;;;;;4954379;28;20295;-83
2023/08/26 04:04:06;;;;;;;8.63;7.18;;;13.30;99.90;;;;;;4954114;28;20039;-83
2023/08/26 04:06:33;;;;;;;11.68;8.18;;;13.30;99.90;;;;;;4955118;28;20065;-82
2023/08/26 04:09:02;;;;;;;10.65;8.00;;;13.30;99.90;;;;;;4958931;28;20080;-83
2023/08/26 04:11:28;;;;;;;11.20;7.65;;;13.30;99.90;;;;;;4953204;28;20129;-83
2023/08/26 04:13:53;;;;;;;10.50;8.43;;;13.30;99.90;;;;;;4960319;28;20121;-83
2023/08/26 04:16:22;;;;;;;10.50;7.45;;;13.20;99.90;;;;;;4958396;28;20109;-83
2023/08/26 04:18:48;;;;;;;11.63;7.70;;;13.20;99.90;;;;;;4972338;28;20039;-83
2023/08/26 04:21:15;;;;;;;10.68;9.00;;;13.20;99.90;;;;;;4941913;28;20049;-82
2023/08/26 04:23:40;;;;;;;10.77;7.63;;;13.20;99.90;;;;;;4956948;28;20077;-82
2023/08/26 04:26:06;;;;;;;12.98;8.93;;;13.20;99.90;;;;;;4956640;28;20572;-82
2023/08/26 04:28:32;;;;;;;9.02;7.68;;;13.20;99.90;;;;;;4942106;28;20050;-83
2023/08/26 04:31:00;;;;;;;10.57;8.65;;;13.20;99.90;;;;;;4972573;28;20046;-83
2023/08/26 04:33:26;;;;;;;10.63;8.25;;;13.20;99.90;;;;;;4958799;28;20038;-83
2023/08/26 04:35:54;;;;;;;10.80;7.82;;;13.20;99.90;;;;;;4957885;28;20048;-82
2023/08/26 04:38:20;;;;;;;10.15;7.30;;;13.20;99.90;;;;;;4959156;28;20197;-82
2023/08/26 04:40:48;;;;;;;9.80;7.70;;;13.20;99.90;;;;;;4975484;28;20046;-82
2023/08/26 04:43:14;;;;;;;7.95;6.90;;;13.30;99.90;;;;;;4961098;28;20038;-82
2023/08/26 04:45:40;;;;;;;11.75;8.88;;;13.30;99.90;;;;;;4960291;28;20038;-82
2023/08/26 04:48:10;;;;;;;11.25;8.43;;;13.40;99.90;;;;;;4961573;28;20042;-83
2023/08/26 04:50:36;;;;;;;11.02;7.78;;;13.40;99.90;;;;;;4943444;28;20046;-83
2023/08/26 04:53:02;;;;;;;10.27;7.93;;;13.50;99.90;;;;;;4960290;28;20042;-83
2023/08/26 04:55:28;;;;;;;10.88;8.15;;;13.60;99.90;;;;;;4957228;28;20092;-83
2023/08/26 04:57:53;;;;;;;9.25;7.60;;;13.50;99.90;;;;;;4945227;28;20050;-82
2023/08/26 05:00:19;;;;;;;10.13;7.72;;;13.50;99.90;;;;;;4977844;28;20030;-82
2023/08/26 05:02:45;;;;;;;9.73;8.02;;;13.60;99.90;;;;;;4945734;28;20526;-83
2023/08/26 05:05:11;;;;;;;12.10;8.70;;;13.60;99.90;;;;;;4976965;28;20043;-82
2023/08/26 05:07:40;;;;;;;10.98;8.00;;;13.70;99.90;;;;;;4976012;28;20061;-82
2023/08/26 05:10:07;;;;;;;9.77;7.85;;;13.70;99.90;;;;;;4958559;28;20034;-83
2023/08/26 05:12:32;;;;;;;11.75;8.32;;;13.80;99.90;;;;;;4960088;28;20690;-82
2023/08/26 05:14:58;;;;;;;12.15;8.35;;;13.80;99.90;;;;;;4959892;28;20119;-82
2023/08/26 05:17:24;;;;;;;9.23;7.93;;;13.90;99.90;;;;;;4976518;28;20038;-83
2023/08/26 05:19:50;;;;;;;8.90;7.47;;;14.00;99.90;;;;;;4960196;28;20057;-82
2023/08/26 05:22:16;;;;;;;9.05;7.57;;;14.00;99.90;;;;;;4945007;28;20336;-82
2023/08/26 05:24:41;;;;;;;10.82;7.03;;;14.10;99.90;;;;;;4960776;28;20069;-82
2023/08/26 05:27:07;;;;;;;10.75;7.30;;;14.20;99.90;;;;;;4944761;28;20473;-83
2023/08/26 05:29:33;;;;;;;10.98;7.30;;;14.20;99.90;;;;;;4960169;28;20489;-82
2023/08/26 05:31:59;;;;;;;9.27;6.78;;;14.20;99.90;;;;;;4958873;28;20374;-83
2023/08/26 05:34:25;;;;;;;12.25;7.38;;;14.30;99.90;;;;;;4961447;28;20030;-82
2023/08/26 05:36:53;;;;;;;9.88;7.07;;;14.40;99.90;;;;;;4961718;28;20042;-83
2023/08/26 05:39:22;;;;;;;9.95;6.97;;;14.40;99.90;;;;;;4947653;28;20581;-82
2023/08/26 05:41:48;;;;;;;8.90;6.60;;;14.50;99.90;;;;;;4958841;28;20122;-83
2023/08/26 05:44:13;;;;;;;8.88;6.47;;;14.50;99.90;;;;;;4944678;28;20451;-83
2023/08/26 05:46:39;;;;;;;7.53;6.03;;;14.60;99.90;;;;;;4977450;28;20157;-82
2023/08/26 05:49:05;;;;;;;8.88;5.97;;;14.70;99.90;;;;;;4973850;28;20553;-82
2023/08/26 05:51:30;;;;;;;7.93;5.90;;;14.70;99.90;;;;;;4944071;28;20122;-83
2023/08/26 05:53:56;;;;;;;7.50;6.10;;;14.80;99.90;;;;;;4976753;28;20035;-82
2023/08/26 05:56:22;;;;;;;12.63;6.32;;;14.90;99.90;;;;;;4945750;28;20198;-83
2023/08/26 05:58:51;;;;;;;10.10;5.65;;;15.00;99.90;;;;;;4960817;28;20074;-83
2023/08/26 06:01:16;;;;;;;6.95;5.85;;;15.10;99.90;;;;;;4960631;28;20402;-82
2023/08/26 06:03:42;;;;;;;7.95;5.50;;;15.10;99.90;;;;;;4961476;28;20042;-82
2023/08/26 06:06:07;;;;;;;7.88;6.13;;;15.10;99.90;;;;;;4960270;28;21102;-82
2023/08/26 06:08:33;;;;;;;8.25;5.60;;;15.10;99.90;;;;;;4959147;28;21515;-82
2023/08/26 06:10:59;;;;;;;7.82;5.85;;;15.10;99.90;;;;;;4969692;28;20050;-83
2023/08/26 06:13:24;;;;;;;10.13;5.47;;;15.10;99.90;;;;;;4976043;28;20034;-83
2023/08/26 06:15:58;;;;;;;6.88;5.00;;;15.10;99.90;;;;;;4976516;28;20054;-83
2023/08/26 06:18:24;;;;;;;8.07;5.85;;;15.10;99.90;;;;;;4957589;28;20096;-82
2023/08/26 06:20:50;;;;;;;9.10;5.35;;;15.10;99.90;;;;;;4940962;28;20494;-82
2023/08/26 06:23:17;;;;;;;8.13;5.68;;;15.10;99.90;;;;;;4940432;28;20125;-82
2023/08/26 06:25:53;;;;;;;8.40;5.47;;;15.20;99.90;;;;;;4957219;28;21104;-83
2023/08/26 06:28:18;;;;;;;9.85;6.28;;;15.10;99.90;;;;;;4944283;28;20050;-82
2023/08/26 06:30:44;;;;;;;6.60;5.82;;;15.10;99.90;;;;;;4954204;28;20046;-83
2023/08/26 06:33:10;;;;;;;9.52;5.82;;;15.20;99.90;;;;;;4940919;28;20117;-83
2023/08/26 06:35:38;;;;;;;8.25;5.30;;;15.20;99.90;;;;;;4975583;28;20034;-82
2023/08/26 06:38:04;;;;;;;7.60;5.97;;;15.20;99.90;;;;;;4976914;28;20053;-82
2023/08/26 06:40:34;;;;;;;6.70;5.38;;;15.30;99.90;;;;;;4976237;28;20038;-83
2023/08/26 06:43:02;;;;;;;7.88;5.75;;;15.30;99.90;;;;;;4945126;28;20089;-83
2023/08/26 06:45:31;;;;;;;8.90;6.13;;;15.30;99.90;;;;;;4957898;28;20447;-83
2023/08/26 06:47:57;;;;;;;10.50;6.13;;;15.40;99.90;;;;;;4957099;28;20118;-83
2023/08/26 06:50:23;;;;;;;7.97;5.65;;;15.40;99.90;;;;;;4973700;28;20046;-83
2023/08/26 06:52:49;;;;;;;8.18;5.97;;;15.40;99.90;;;;;;4942148;28;20059;-83
2023/08/26 06:55:17;;;;;;;7.85;6.25;;;15.50;99.90;;;;;;4972476;28;20053;-83
2023/08/26 06:57:43;;;;;;;6.75;5.82;;;15.60;99.90;;;;;;4972747;28;20027;-83
2023/08/26 07:00:09;;;;;;;6.57;5.90;;;15.60;99.90;;;;;;4973728;28;20046;-84
2023/08/26 07:02:35;;;;;;;7.97;6.32;;;15.60;99.90;;;;;;4943298;28;20046;-84
2023/08/26 07:05:01;;;;;;;7.88;6.03;;;15.70;99.90;;;;;;4958347;28;20049;-84
2023/08/26 07:07:26;;;;;;;6.60;5.53;;;15.80;99.90;;;;;;4954360;28;20063;-84
2023/08/26 07:09:52;;;;;;;10.07;6.35;;;16.00;99.90;;;;;;4967974;28;20051;-83
2023/08/26 07:12:18;;;;;;;9.38;6.82;;;16.10;99.90;;;;;;4966155;28;20488;-83
2023/08/26 07:14:43;;;;;;;9.75;7.47;;;16.20;99.90;;;;;;4946652;28;20046;-83
2023/08/26 07:17:09;;;;;;;12.20;7.90;;;16.30;99.90;;;;;;4956402;28;20031;-83
2023/08/26 07:19:35;;;;;;;14.07;8.55;;;16.40;99.90;;;;;;4970074;28;20433;-83
2023/08/26 07:22:00;;;;;;;13.70;7.63;;;16.50;99.90;;;;;;4954229;28;20066;-83
2023/08/26 07:24:26;;;;;;;13.10;9.13;;;16.40;99.90;;;;;;4938199;28;20042;-83
2023/08/26 07:26:51;;;;;;;13.30;9.13;;;16.40;99.90;;;;;;4953606;28;20073;-84
2023/08/26 07:29:17;;;;;;;13.43;10.38;;;16.50;99.90;;;;;;4951548;28;20042;-84
2023/08/26 07:31:43;;;;;;;13.32;10.90;;;16.70;99.90;;;;;;4939272;28;20043;-84
2023/08/26 07:34:09;;;;;;;14.07;10.88;;;16.70;99.90;;;;;;4954229;28;20043;-83
2023/08/26 07:36:35;;;;;;;18.35;11.93;;;16.80;99.90;;;;;;4953203;28;20039;-83
2023/08/26 07:39:00;;;;;;;18.23;13.25;;;16.90;99.90;;;;;;4955428;28;20035;-83
2023/08/26 07:41:26;;;;;;;19.98;14.45;;;17.00;99.90;;;;;;4950688;28;20054;-83
2023/08/26 07:43:54;;;;;;;22.10;16.13;;;17.00;99.90;;;;;;4970697;28;20046;-84
2023/08/26 07:46:22;;;;;;;21.35;16.58;;;17.20;99.90;;;;;;4939581;28;20046;-84
2023/08/26 07:48:48;;;;;;;24.15;17.38;;;17.20;99.90;;;;;;4958326;28;20054;-84
2023/08/26 07:51:14;;;;;;;24.85;17.67;;;17.20;99.90;;;;;;4954608;28;20050;-83
2023/08/26 07:53:40;;;;;;;22.58;18.10;;;17.30;99.90;;;;;;4939892;28;20035;-84
2023/08/26 07:56:06;;;;;;;23.25;18.42;;;17.50;99.90;;;;;;4954709;28;20042;-84
2023/08/26 07:58:35;;;;;;;21.95;17.58;;;17.60;99.90;;;;;;4938483;28;20038;-83
2023/08/26 08:01:01;;;;;;;20.42;17.13;;;17.60;99.90;;;;;;4951309;28;20043;-83
2023/08/26 08:03:27;;;;;;;21.70;17.13;;;17.60;99.90;;;;;;4954353;28;20041;-84
2023/08/26 08:05:52;;;;;;;22.30;16.85;;;17.80;99.90;;;;;;4954477;28;20046;-83
2023/08/26 08:08:18;;;;;;;20.30;17.45;;;17.80;99.90;;;;;;4953860;28;20501;-84
2023/08/26 08:10:44;;;;;;;18.38;15.25;;;18.00;99.90;;;;;;4969303;28;20055;-83
2023/08/26 08:13:10;;;;;;;23.23;16.10;;;18.10;99.90;;;;;;4954191;28;20030;-83
2023/08/26 08:15:38;;;;;;;19.63;15.82;;;18.30;99.90;;;;;;4939377;28;20475;-84
2023/08/26 08:18:04;;;;;;;21.70;15.70;;;18.50;99.90;;;;;;4939665;28;20546;-83
2023/08/26 08:20:33;;;;;;;17.73;14.38;;;18.50;99.90;;;;;;4956907;28;20039;-84
2023/08/26 08:22:59;;;;;;;18.27;13.48;;;18.60;99.90;;;;;;4957973;28;20050;-84
2023/08/26 08:25:24;;;;;;;16.90;13.63;;;18.70;99.90;;;;;;4942042;28;20332;-83
2023/08/26 08:27:50;;;;;;;15.93;12.52;;;18.50;99.90;;;;;;4953339;28;20209;-84
2023/08/26 08:30:16;;;;;;;17.05;12.63;;;18.70;99.90;;;;;;4944909;28;20410;-84
2023/08/26 08:32:41;;;;;;;14.30;11.35;;;18.80;99.90;;;;;;4943163;28;20126;-84
2023/08/26 08:35:08;;;;;;;15.13;11.18;;;18.80;99.90;;;;;;4942397;28;20071;-84
2023/08/26 08:37:37;;;;;;;15.25;11.02;;;18.70;99.90;;;;;;4954899;28;20039;-83
2023/08/26 08:40:03;;;;;;;14.63;10.80;;;18.80;99.90;;;;;;4954799;28;20045;-84
2023/08/26 08:42:34;;;;;;;11.77;9.68;;;18.60;99.90;;;;;;4956734;28;20038;-84
2023/08/26 08:45:00;;;;;;;11.65;9.98;;;18.90;99.90;;;;;;4959912;28;21169;-84
2023/08/26 08:47:26;;;;;;;12.75;9.52;;;19.10;99.90;;;;;;4960504;28;20047;-84
2023/08/26 08:49:53;;;;;;;10.82;8.60;;;19.00;99.90;;;;;;4957091;28;20045;-84
2023/08/26 08:52:21;;;;;;;10.95;8.80;;;19.00;99.90;;;;;;4958935;28;20105;-84
2023/08/26 08:54:47;;;;;;;15.82;8.70;;;18.90;99.90;;;;;;4940684;28;20161;-83
2023/08/26 08:57:20;;;;;;;13.52;9.18;;;19.00;99.90;;;;;;4972942;28;20045;-84
2023/08/26 08:59:46;;;;;;;12.13;9.23;;;19.10;99.90;;;;;;4943292;28;20142;-83
2023/08/26 09:02:13;;;;;;;11.32;9.35;;;18.90;99.90;;;;;;4949962;28;20141;-84
2023/08/26 09:04:40;;;;;;;10.80;9.55;;;19.20;99.90;;;;;;4958938;28;20047;-84
2023/08/26 09:07:09;;;;;;;12.45;8.93;;;19.10;99.90;;;;;;4956225;28;20063;-84
2023/08/26 09:09:34;;;;;;;12.10;9.02;;;19.10;99.90;;;;;;4954738;28;20078;-84
2023/08/26 09:12:00;;;;;;;12.10;9.60;;;19.50;99.90;;;;;;4959663;28;20197;-84
2023/08/26 09:14:26;;;;;;;12.27;9.45;;;19.30;99.90;;;;;;4959294;28;20063;-83
2023/08/26 09:16:56;;;;;;;10.55;9.15;;;19.50;99.90;;;;;;4941922;28;20046;-83
2023/08/26 09:19:22;;;;;;;12.75;9.57;;;19.60;99.90;;;;;;4959182;28;20150;-83
2023/08/26 09:21:48;;;;;;;11.25;9.30;;;19.60;99.90;;;;;;4958157;28;20053;-83
2023/08/26 09:24:17;;;;;;;11.55;9.10;;;19.60;99.90;;;;;;4959049;28;20042;-84
2023/08/26 09:27:17;;;;;;;10.85;9.48;;;19.30;99.90;;;;;;4941101;28;20050;-84
2023/08/26 09:29:46;;;;;;;12.20;9.38;;;19.50;99.90;;;;;;4973353;28;20046;-84
2023/08/26 09:32:12;;;;;;;12.55;9.27;;;20.00;99.90;;;;;;4942607;28;20086;-84
2023/08/26 09:34:38;;;;;;;9.75;8.70;;;20.20;99.90;;;;;;4957047;28;20109;-84
2023/08/26 09:37:06;;;;;;;11.70;8.68;;;20.50;99.90;;;;;;4973637;28;20045;-84
2023/08/26 09:39:32;;;;;;;11.85;8.23;;;20.30;99.90;;;;;;4956232;28;20121;-84
2023/08/26 09:41:59;;;;;;;10.60;7.53;;;20.40;99.90;;;;;;4955082;28;20051;-84
2023/08/26 09:44:28;;;;;;;13.52;7.30;;;20.40;99.90;;;;;;4940471;28;20258;-85
2023/08/26 09:46:56;;;;;;;12.13;7.85;;;20.70;99.90;;;;;;4940609;28;20035;-84
2023/08/26 09:49:22;;;;;;;7.95;6.70;;;21.20;99.90;;;;;;4957870;28;20074;-85
2023/08/26 09:51:50;;;;;;;9.65;7.18;;;21.00;99.90;;;;;;4967967;28;20113;-84
2023/08/26 09:54:18;;;;;;;11.50;7.57;;;20.90;99.90;;;;;;4956684;28;20038;-84
2023/08/26 09:56:45;;;;;;;11.30;7.18;;;21.20;99.90;;;;;;4967801;28;20042;-84
2023/08/26 09:59:11;;;;;;;10.32;8.02;;;21.70;99.90;;;;;;4955909;28;20034;-84
2023/08/26 10:01:39;;;;;;;8.02;7.22;;;21.70;99.90;;;;;;4957203;28;20053;-84
2023/08/26 10:04:08;;;;;;;10.82;7.65;;;21.50;99.90;;;;;;4957736;28;20049;-84
2023/08/26 10:06:41;;;;;;;10.32;6.80;;;21.10;99.90;;;;;;4947214;28;20076;-84
2023/08/26 10:09:17;;;;;;;8.60;7.10;;;21.00;99.90;;;;;;4972625;28;20046;-85
2023/08/26 10:11:44;;;;;;;10.10;7.43;;;20.70;99.90;;;;;;4973401;28;20177;-85
2023/08/26 10:14:14;;;;;;;15.38;7.22;;;20.70;99.90;;;;;;4975647;28;20069;-84
2023/08/26 10:16:41;;;;;;;9.05;6.63;;;21.40;99.90;;;;;;4944833;28;20048;-84
2023/08/26 10:19:08;;;;;;;8.50;5.85;;;21.60;99.90;;;;;;4961640;28;20129;-85
2023/08/26 10:21:35;;;;;;;8.80;5.40;;;22.10;99.90;;;;;;4943474;28;20394;-84
2023/08/26 10:24:02;;;;;;;8.18;4.80;;;22.10;99.90;;;;;;4960407;28;20053;-85
2023/08/26 10:26:28;;;;;;;8.45;4.90;;;21.70;99.90;;;;;;4956801;28;20177;-85
2023/08/26 10:28:55;;;;;;;9.30;5.03;;;21.70;99.90;;;;;;4943076;28;20067;-84
2023/08/26 10:31:33;;;;;;;9.25;4.53;;;21.40;99.90;;;;;;4942937;28;20084;-84
2023/08/26 10:34:08;;;;;;;2.53;1.63;;;20.40;99.90;;;;;;4975919;28;20112;-85
2023/08/26 10:36:34;;;;;;;3.80;1.30;;;18.40;99.90;;;;;;4976217;28;20041;-83
2023/08/26 10:39:00;;;;;;;4.10;1.27;;;17.80;99.90;;;;;;4958200;28;20042;-84
2023/08/26 10:41:27;;;;;;;2.80;1.85;;;17.00;99.90;;;;;;4971633;28;20376;-83
2023/08/26 10:43:54;;;;;;;3.67;1.77;;;16.90;99.90;;;;;;4957680;28;21291;-83
2023/08/26 10:46:31;;;;;;;4.43;1.80;;;16.70;99.90;;;;;;4954159;28;21479;-84
2023/08/26 10:49:00;;;;;;;2.33;1.50;;;16.90;99.90;;;;;;4959527;28;20239;-84
2023/08/26 10:51:27;;;;;;;2.75;1.40;;;17.00;99.90;;;;;;4974123;28;20749;-83
2023/08/26 10:54:03;;;;;;;2.50;1.30;;;17.50;99.90;;;;;;4942192;28;20034;-84
2023/08/26 10:56:33;;;;;;;2.30;1.40;;;18.00;99.90;;;;;;4956435;28;20104;-84
2023/08/26 10:59:04;;;;;;;3.88;1.60;;;18.60;99.90;;;;;;4974354;28;20038;-84
2023/08/26 11:01:39;;;;;;;3.42;1.70;;;18.80;99.90;;;;;;4960129;28;20046;-84
2023/08/26 11:04:05;;;;;;;2.58;1.30;;;19.10;99.90;;;;;;4944229;28;20804;-83
2023/08/26 11:06:39;;;;;;;2.25;1.58;;;19.30;99.90;;;;;;4976318;28;20042;-84
2023/08/26 11:09:05;;;;;;;3.88;1.63;;;18.90;99.90;;;;;;4942561;28;20069;-83
2023/08/26 11:11:34;;;;;;;3.60;1.77;;;19.20;99.90;;;;;;4972906;28;20043;-84
2023/08/26 11:14:00;;;;;;;3.70;1.90;;;19.30;99.90;;;;;;4944652;28;20465;-83
2023/08/26 11:16:26;;;;;;;3.72;1.88;;;19.40;99.90;;;;;;4955985;28;20038;-83
2023/08/26 11:18:53;;;;;;;3.13;2.00;;;19.40;99.90;;;;;;4944040;28;20080;-84
2023/08/26 11:21:20;;;;;;;3.83;2.38;;;19.60;99.90;;;;;;4974499;28;20050;-85
2023/08/26 11:23:48;;;;;;;4.13;2.38;;;19.20;99.90;;;;;;4960393;28;20133;-84
2023/08/26 11:26:21;;;;;;;5.40;2.67;;;18.90;99.90;;;;;;4943849;28;20583;-84
2023/08/26 11:28:48;;;;;;;2.42;2.10;;;18.90;99.90;;;;;;4956749;28;20152;-84
2023/08/26 11:31:14;;;;;;;4.85;2.83;;;18.80;99.90;;;;;;4943425;28;20430;-84
2023/08/26 11:33:40;;;;;;;3.92;2.80;;;18.90;99.90;;;;;;4957501;28;20094;-84
2023/08/26 11:36:06;;;;;;;3.50;2.60;;;18.60;99.90;;;;;;4957590;28;20426;-84
2023/08/26 11:38:35;;;;;;;4.78;3.00;;;18.70;99.90;;;;;;4954204;28;20078;-84
2023/08/26 11:41:06;;;;;;;4.30;2.97;;;18.60;99.90;;;;;;4957355;28;20046;-84
2023/08/26 11:43:33;;;;;;;4.35;2.92;;;18.60;99.90;;;;;;4958903;28;20054;-83
2023/08/26 11:45:59;;;;;;;5.13;4.05;;;18.70;99.90;;;;;;4958707;28;20434;-84
2023/08/26 11:48:26;;;;;;;5.93;3.33;;;18.60;99.90;;;;;;4953761;28;20171;-84
2023/08/26 11:50:57;;;;;;;6.20;3.63;;;18.60;99.90;;;;;;4959489;28;20125;-84
2023/08/26 11:53:24;;;;;;;7.47;4.43;;;18.20;99.90;;;;;;4942505;28;20047;-82
2023/08/26 11:55:50;;;;;;;10.85;4.60;;;18.20;99.90;;;;;;4958393;28;20137;-82
2023/08/26 11:58:18;;;;;;;9.27;4.60;;;18.10;99.90;;;;;;4961020;28;20125;-83
2023/08/26 12:00:44;;;;;;;6.85;4.85;;;18.00;99.90;;;;;;4945619;28;20038;-83
2023/08/26 12:03:10;;;;;;;9.00;4.32;;;18.20;99.90;;;;;;4944717;28;20049;-83
2023/08/26 12:05:44;;;;;;;6.65;4.07;;;18.40;99.90;;;;;;4962689;28;20050;-83
2023/08/26 12:08:19;;;;;;;7.30;5.00;;;19.40;99.90;;;;;;4961027;28;20078;-83
2023/08/26 12:10:52;;;;;;;7.10;5.07;;;19.30;99.90;;;;;;4945102;28;20080;-83
2023/08/26 12:13:19;;;;;;;7.65;5.07;;;19.60;99.90;;;;;;4945126;28;20505;-84
2023/08/26 12:15:45;;;;;;;10.18;5.70;;;19.50;99.90;;;;;;4961523;28;20077;-83
2023/08/26 12:18:12;;;;;;;11.95;6.05;;;20.30;99.90;;;;;;4960985;28;20097;-84
2023/08/26 12:20:38;;;;;;;12.35;6.68;;;20.70;99.90;;;;;;4960475;28;20081;-84
2023/08/26 12:23:07;;;;;;;9.23;5.85;;;21.10;99.90;;;;;;4942666;28;20494;-83
2023/08/26 12:25:40;;;;;;;7.57;5.10;;;21.90;99.90;;;;;;4960724;28;20089;-84
2023/08/26 12:28:09;;;;;;;7.13;4.95;;;21.90;99.90;;;;;;4944702;28;20543;-84
2023/08/26 12:30:36;;;;;;;5.05;4.03;;;21.50;99.90;;;;;;4962807;28;20062;-84
2023/08/26 12:33:06;;;;;;;5.32;4.05;;;20.60;99.90;;;;;;4946229;28;20049;-84
2023/08/26 12:35:33;;;;;;;5.32;4.40;;;20.60;99.90;;;;;;4945171;28;20496;-84
2023/08/26 12:38:02;;;;;;;8.80;5.57;;;20.30;99.90;;;;;;4976203;28;20204;-84